• Join FlightAware (Why Join?)
  • Login
  • US Flag 
04:17AM EST


 

Airport Tracker/Info


-or-


 

Live Flight TrackerFlight Track Log ✈ UAL822 ✈ 29-Apr-2013 ✈ KMSP - KORD

Flight Track Log - Related Links

Times and Time Zones

All times are in EDT time to prevent confusion due to time zone crossing. See the UAL822 flight status page for this flight to view local times or setup timezone preferences in your user account.

Time Position Orientation Groundspeed Altitude Reporting Facility
EDT Latitude Longitude Course Direction KTS MPH feet Rate Location/Type
09:48AM 44.9397 -93.2414 119° Southeast 185 213 3,300  Level Minneapolis Center
09:49AM 44.7075 -92.8731 117° Southeast  Level Estimated
09:49AM 44.9939 -93.1867 36° Northeast 247 284 6,300  Level Minneapolis Center
09:50AM 44.6491 -92.7574 113° Southeast  Level Estimated
09:50AM 45.0439 -93.1072 48° Northeast 273 314 8,300  Level Minneapolis Center
09:51AM 44.6497 -92.6155 90° East  Level FlightAware Approximate
09:51AM 45.0056 -93.0072 118° Southeast 299 344 11,100  Level Minneapolis Center
09:52AM 44.5899 -92.5013 109° East  Level Estimated
09:52AM 44.9439 -92.8950 128° Southeast 360 414 13,500  Level Minneapolis Center
09:53AM 44.5300 -92.3873 119° Southeast  Level Estimated
09:53AM 44.8847 -92.7683 123° Southeast 383 441 16,600  Level Minneapolis Center
09:54AM 44.8222 -92.6414 125° Southeast 391 450 19,200 2,340 Climbing Minneapolis Center
09:55AM 44.7575 -92.5064 124° Southeast 408 470 21,400 2,460 Climbing Minneapolis Center
09:56AM 44.6761 -92.3394 124° Southeast 427 491 24,300 2,460 Climbing Minneapolis Center
09:57AM 44.6086 -92.2008 124° Southeast 430 495 26,500 1,680 Climbing Minneapolis Center
09:58AM 44.5400 -92.0603 124° Southeast 436 502 27,800 1,080 Climbing Minneapolis Center
09:59AM 44.4669 -91.9117 125° Southeast 458 527 29,000 480 Climbing Minneapolis Center
10:00AM 44.3786 -91.7342 125° Southeast 465 535 29,000  Level Minneapolis Center
10:01AM 44.3061 -91.5883 125° Southeast 460 529 29,000  Level Minneapolis Center
10:02AM 44.2336 -91.4411 124° Southeast 461 531 29,000  Level Minneapolis Center
10:03AM 44.1550 -91.2836 125° Southeast 466 536 29,000  Level Minneapolis Center
10:04AM 44.0825 -91.1383 125° Southeast 462 532 29,000  Level Minneapolis Center
10:05AM 44.0092 -90.9958 126° Southeast 459 528 29,000  Level Minneapolis Center
10:06AM 43.9353 -90.8494 125° Southeast 462 532 29,000  Level Minneapolis Center
10:07AM 43.8464 -90.6742 125° Southeast 467 537 29,000  Level Minneapolis Center
10:08AM 43.7725 -90.5289 125° Southeast 465 535 29,000 -360 Level Minneapolis Center
10:09AM 43.6972 -90.3853 126° Southeast 463 533 28,300 -840 Descending Minneapolis Center
10:10AM 43.6225 -90.2394 125° Southeast 467 537 27,300 -1,020 Descending Minneapolis Center
10:11AM 43.5478 -90.1022 127° Southeast 455 524 26,300 -960 Descending Minneapolis Center
10:12AM 43.4778 -89.9656 125° Southeast 443 510 25,400 -1,020 Descending Minneapolis Center
10:14AM 43.3936 -89.8097 127° Southeast 435 501 24,200 -1,080 Descending Chicago Center
10:15AM 43.3242 -89.6764 126° Southeast 430 495 23,200 -1,020 Descending Chicago Center
10:16AM 43.2411 -89.5722 138° Southeast 407 468 22,200 -1,200 Descending Chicago Center
10:17AM 43.1300 -89.4794 149° Southeast 404 465 20,800 -1,680 Descending Chicago Center
10:18AM 43.0386 -89.4019 148° Southeast 392 451 18,800 -2,100 Descending Chicago Center
10:19AM 42.9539 -89.3167 144° Southeast 383 441 16,500 -1,680 Descending Chicago Center
10:20AM 42.8822 -89.2128 133° Southeast 374 430 15,400 -1,320 Descending Chicago Center
10:21AM 42.8106 -89.1111 134° Southeast 372 428 13,800 -1,500 Descending Chicago Center
10:22AM 42.7281 -88.9944 134° Southeast 367 422 12,300 -1,020 Descending Chicago Center
10:23AM 42.6567 -88.8942 134° Southeast 370 426 11,700 -660 Descending Chicago Center
10:24AM 42.5875 -88.7961 134° Southeast 362 417 11,000 -720 Descending Chicago Center
10:25AM 42.5189 -88.7017 135° Southeast 353 406 10,300 -540 Descending Chicago Center
10:26AM 42.4511 -88.6064 134° Southeast 351 404 10,000 -180 Descending Chicago Center
10:27AM 42.3728 -88.4939 133° Southeast 351 404 10,000  Level Chicago Center
10:28AM 42.3281 -88.3692 116° Southeast 354 407 10,000  Level Chicago Center
10:29AM 42.2664 -88.2650 129° Southeast 355 409 10,000  Level Chicago Center
10:30AM 42.2069 -88.1647 129° Southeast 347 399 10,000 -600 Level Chicago Center
10:31AM 42.1467 -88.0919 138° Southeast 301 346 8,800 -1,380 Descending Chicago Center
10:32AM 42.0919 -88.0158 134° Southeast 285 328 7,200 -900 Descending Chicago Center
10:33AM 42.0908 -87.8942 91° East 285 328 7,000 2,760 Descending Chicago Center
10:34AM 42.0908 -87.7992 90° East 271 312 13,000 5,760 Climbing Chicago Center